createdAt,value
2022-08-26T00:01:56.060Z,17.75
2022-08-26T00:04:25.451Z,17.73
2022-08-26T00:06:55.803Z,17.69
2022-08-26T00:09:23.627Z,17.70
2022-08-26T00:11:52.570Z,17.69
2022-08-26T00:14:19.303Z,17.66
2022-08-26T00:16:47.524Z,17.63
2022-08-26T00:19:17.773Z,17.64
2022-08-26T00:21:46.299Z,17.62
2022-08-26T00:24:17.823Z,17.64
2022-08-26T00:26:44.851Z,17.66
2022-08-26T00:29:12.221Z,17.63
2022-08-26T00:31:39.230Z,17.56
2022-08-26T00:34:07.189Z,17.55
2022-08-26T00:36:36.838Z,17.51
2022-08-26T00:39:04.375Z,17.45
2022-08-26T00:41:31.051Z,17.48
2022-08-26T00:43:57.700Z,17.46
2022-08-26T00:46:31.400Z,17.45
2022-08-26T00:49:11.933Z,17.49
2022-08-26T00:51:49.543Z,17.49
2022-08-26T00:54:17.880Z,17.46
2022-08-26T00:57:00.416Z,17.47
2022-08-26T00:59:29.203Z,17.45
2022-08-26T01:02:00.576Z,17.46
2022-08-26T01:04:31.344Z,17.47
2022-08-26T01:06:59.781Z,17.42
2022-08-26T01:09:27.069Z,17.41
2022-08-26T01:11:57.319Z,17.36
2022-08-26T01:14:27.052Z,17.31
2022-08-26T01:16:53.713Z,17.31
2022-08-26T01:19:29.094Z,17.27
2022-08-26T01:22:10.171Z,17.27
2022-08-26T01:24:39.090Z,17.28
2022-08-26T01:27:08.621Z,17.26
2022-08-26T01:29:38.438Z,17.33
2022-08-26T01:32:08.868Z,17.32
2022-08-26T01:34:37.940Z,17.30
2022-08-26T01:37:06.998Z,17.27
2022-08-26T01:39:39.442Z,17.28
2022-08-26T01:42:10.281Z,17.29
2022-08-26T01:44:52.238Z,17.23
2022-08-26T01:47:21.493Z,17.21
2022-08-26T01:49:51.520Z,17.20
2022-08-26T01:52:24.410Z,17.15
2022-08-26T01:54:57.350Z,17.11
2022-08-26T01:57:25.409Z,17.07
2022-08-26T01:59:55.216Z,17.07
2022-08-26T02:02:23.085Z,17.06
2022-08-26T02:04:57.065Z,17.04
2022-08-26T02:07:26.507Z,17.05
2022-08-26T02:09:54.454Z,17.04
2022-08-26T02:12:21.706Z,17.02
2022-08-26T02:14:55.583Z,16.98
2022-08-26T02:17:29.196Z,17.01
2022-08-26T02:19:56.457Z,16.99
2022-08-26T02:22:24.745Z,16.97
2022-08-26T02:24:59.012Z,16.94
2022-08-26T02:27:32.158Z,16.93
2022-08-26T02:30:25.306Z,16.89
2022-08-26T02:32:53.950Z,16.91
2022-08-26T02:35:23.238Z,16.91
2022-08-26T02:37:55.832Z,16.87
2022-08-26T02:40:28.547Z,16.82
2022-08-26T02:42:55.888Z,16.80
2022-08-26T02:45:24.643Z,16.76
2022-08-26T02:47:52.521Z,16.75
2022-08-26T02:50:20.970Z,16.73
2022-08-26T02:52:48.526Z,16.74
2022-08-26T02:55:16.140Z,16.76
2022-08-26T02:57:43.085Z,16.73
2022-08-26T03:00:13.124Z,16.73
2022-08-26T03:02:40.164Z,16.78
2022-08-26T03:05:07.826Z,16.75
2022-08-26T03:07:34.597Z,16.72
2022-08-26T03:10:01.242Z,16.70
2022-08-26T03:12:35.637Z,16.71
2022-08-26T03:15:02.441Z,16.77
2022-08-26T03:17:44.431Z,16.77
2022-08-26T03:20:11.377Z,16.74
2022-08-26T03:22:40.642Z,16.77
2022-08-26T03:25:10.146Z,16.72
2022-08-26T03:27:36.842Z,16.65
2022-08-26T03:30:23.205Z,16.71
2022-08-26T03:32:50.258Z,16.70
2022-08-26T03:35:17.032Z,16.68
2022-08-26T03:37:43.798Z,16.65
2022-08-26T03:40:14.091Z,16.68
2022-08-26T03:42:41.403Z,16.67
2022-08-26T03:45:13.431Z,16.69
2022-08-26T03:47:42.416Z,16.64
2022-08-26T03:50:12.403Z,16.64
2022-08-26T03:52:43.497Z,16.61
2022-08-26T03:55:11.181Z,16.52
2022-08-26T03:57:37.827Z,16.51
2022-08-26T04:00:08.322Z,16.52
2022-08-26T04:02:35.425Z,16.61
2022-08-26T04:05:02.952Z,16.56
2022-08-26T04:07:30.394Z,16.54
2022-08-26T04:09:58.991Z,16.52
2022-08-26T04:12:26.186Z,16.55
2022-08-26T04:14:53.823Z,16.51
2022-08-26T04:17:25.067Z,16.49
2022-08-26T04:19:54.994Z,16.48
2022-08-26T04:22:24.812Z,16.49
2022-08-26T04:24:52.412Z,16.50
2022-08-26T04:27:19.204Z,16.49
2022-08-26T04:29:46.616Z,16.48
2022-08-26T04:32:14.735Z,16.51
2022-08-26T04:34:43.438Z,16.54
2022-08-26T04:37:13.181Z,16.59
2022-08-26T04:39:40.395Z,16.61
2022-08-26T04:42:07.221Z,16.61
2022-08-26T04:44:35.431Z,16.66
2022-08-26T04:47:02.242Z,16.72
2022-08-26T04:49:35.469Z,16.77
2022-08-26T04:52:02.782Z,16.78
2022-08-26T04:54:32.068Z,16.86
2022-08-26T04:56:59.183Z,16.93
2022-08-26T04:59:25.912Z,16.99
2022-08-26T05:01:56.449Z,17.06
2022-08-26T05:04:23.329Z,17.12
2022-08-26T05:06:50.884Z,17.22
2022-08-26T05:09:19.302Z,17.28
2022-08-26T05:11:48.594Z,17.37
2022-08-26T05:14:18.606Z,17.48
2022-08-26T05:16:45.465Z,17.60
2022-08-26T05:19:15.298Z,17.73
2022-08-26T05:21:47.252Z,17.87
2022-08-26T05:24:14.837Z,18.04
2022-08-26T05:26:41.924Z,18.18
2022-08-26T05:29:11.644Z,18.29
2022-08-26T05:31:38.920Z,18.43
2022-08-26T05:34:05.963Z,18.58
2022-08-26T05:36:35.692Z,18.76
2022-08-26T05:39:06.136Z,18.99
2022-08-26T05:41:38.572Z,19.24
2022-08-26T05:44:07.487Z,19.47
2022-08-26T05:46:36.605Z,19.70
2022-08-26T05:49:05.018Z,19.94
2022-08-26T05:51:32.800Z,20.12
2022-08-26T05:54:02.305Z,20.30
2022-08-26T05:56:30.682Z,20.51
2022-08-26T05:58:58.377Z,20.67
2022-08-26T06:01:28.599Z,20.82
2022-08-26T06:04:01.776Z,21.07
2022-08-26T06:06:34.555Z,21.11
2022-08-26T06:09:04.423Z,21.41
2022-08-26T06:11:33.119Z,21.60
2022-08-26T06:14:05.371Z,21.67
2022-08-26T06:16:35.260Z,21.47
2022-08-26T06:19:11.071Z,21.76
2022-08-26T06:21:41.186Z,22.06
2022-08-26T06:24:29.230Z,22.26
2022-08-26T06:27:01.925Z,22.45
2022-08-26T06:29:30.899Z,22.77
2022-08-26T06:31:58.247Z,22.96
2022-08-26T06:34:30.561Z,23.23
2022-08-26T06:36:59.856Z,23.48
2022-08-26T06:39:30.717Z,23.61
2022-08-26T06:41:59.237Z,23.32
2022-08-26T06:44:26.860Z,23.64
2022-08-26T06:46:53.868Z,24.12
2022-08-26T06:49:27.233Z,24.56
2022-08-26T06:51:58.202Z,24.92
2022-08-26T06:54:26.143Z,25.35
2022-08-26T06:56:55.875Z,25.67
2022-08-26T06:59:23.989Z,25.76
2022-08-26T07:01:50.771Z,26.24
2022-08-26T07:04:20.337Z,26.62
2022-08-26T07:06:52.405Z,26.62
2022-08-26T07:09:22.010Z,26.96
2022-08-26T07:11:49.307Z,27.54
2022-08-26T07:14:16.829Z,27.27
2022-08-26T07:16:47.456Z,27.37
2022-08-26T07:19:14.430Z,28.07
2022-08-26T07:21:44.129Z,28.00
2022-08-26T07:24:11.378Z,28.31
2022-08-26T07:26:39.300Z,28.43
2022-08-26T07:29:12.376Z,29.18
2022-08-26T07:31:42.227Z,29.22
2022-08-26T07:34:09.348Z,29.24
2022-08-26T07:36:36.616Z,29.62
2022-08-26T07:39:03.560Z,29.65
2022-08-26T07:44:02.335Z,30.30
2022-08-26T07:46:31.169Z,30.33
2022-08-26T07:48:58.698Z,30.17
2022-08-26T07:51:27.164Z,30.97
2022-08-26T07:53:56.927Z,30.91
2022-08-26T07:56:25.244Z,30.87
2022-08-26T07:58:52.944Z,30.50
2022-08-26T08:01:25.723Z,31.15
2022-08-26T08:03:53.963Z,31.97
2022-08-26T08:06:22.542Z,32.21
2022-08-26T08:08:55.196Z,32.46
2022-08-26T08:11:23.657Z,32.52
2022-08-26T08:13:56.071Z,32.78
2022-08-26T08:16:25.932Z,33.20
2022-08-26T08:18:53.413Z,33.33
2022-08-26T08:21:21.963Z,33.20
2022-08-26T08:23:52.394Z,33.86
2022-08-26T08:26:19.153Z,33.68
2022-08-26T08:28:47.858Z,33.91
2022-08-26T08:31:45.119Z,33.83
2022-08-26T08:34:10.242Z,33.71
2022-08-26T08:36:36.880Z,33.91
2022-08-26T08:39:03.743Z,34.28
2022-08-26T08:41:31.347Z,34.75
2022-08-26T08:44:00.590Z,34.06
2022-08-26T08:46:28.251Z,34.86
2022-08-26T08:48:59.677Z,34.97
2022-08-26T08:51:35.579Z,34.95
2022-08-26T08:54:02.771Z,34.94
2022-08-26T08:56:57.608Z,34.21
2022-08-26T08:59:31.325Z,34.65
2022-08-26T09:02:08.143Z,35.85
2022-08-26T09:05:02.906Z,35.47
2022-08-26T09:07:36.866Z,35.69
2022-08-26T09:10:39.002Z,35.90
2022-08-26T09:13:09.371Z,35.34
2022-08-26T09:15:49.556Z,35.64
2022-08-26T09:18:46.967Z,36.37
2022-08-26T09:21:18.870Z,36.81
2022-08-26T09:23:49.505Z,36.60
2022-08-26T09:26:39.338Z,36.29
2022-08-26T09:29:15.522Z,36.78
2022-08-26T09:31:42.550Z,36.77
2022-08-26T09:34:17.252Z,37.09
2022-08-26T09:36:54.989Z,37.69
2022-08-26T09:39:33.694Z,37.52
2022-08-26T09:42:10.299Z,36.98
2022-08-26T09:44:58.054Z,36.95
2022-08-26T09:47:33.891Z,37.09
2022-08-26T09:50:29.122Z,36.65
2022-08-26T09:53:09.823Z,37.06
2022-08-26T09:55:42.058Z,37.81
2022-08-26T09:58:14.544Z,37.79
2022-08-26T10:00:56.417Z,38.68
2022-08-26T10:03:27.662Z,37.25
2022-08-26T10:06:08.342Z,37.92
2022-08-26T10:08:44.170Z,38.31
2022-08-26T10:11:26.485Z,38.31
2022-08-26T10:14:04.715Z,38.77
2022-08-26T10:16:48.575Z,38.72
2022-08-26T10:19:55.864Z,38.93
2022-08-26T10:22:26.144Z,38.13
2022-08-26T10:24:58.794Z,38.35
2022-08-26T10:27:53.731Z,39.07
2022-08-26T10:30:31.697Z,39.44
2022-08-26T10:33:07.127Z,39.49
2022-08-26T10:35:37.125Z,39.67
2022-08-26T10:38:16.723Z,39.19
2022-08-26T10:40:58.952Z,39.28
2022-08-26T10:43:41.007Z,37.20
2022-08-26T10:46:16.325Z,35.90
2022-08-26T10:48:57.637Z,35.47
2022-08-26T10:51:35.547Z,35.51
2022-08-26T10:54:13.307Z,35.07
2022-08-26T10:56:57.559Z,34.76
2022-08-26T10:59:31.287Z,34.59
2022-08-26T11:02:03.739Z,35.15
2022-08-26T11:04:45.772Z,35.03
2022-08-26T11:07:33.473Z,36.77
2022-08-26T11:10:04.403Z,36.61
2022-08-26T11:12:37.441Z,37.50
2022-08-26T11:15:11.206Z,37.91
2022-08-26T11:17:46.335Z,39.38
2022-08-26T11:20:39.161Z,37.93
2022-08-26T11:23:22.375Z,37.72
2022-08-26T11:26:07.583Z,39.06
2022-08-26T11:28:44.243Z,39.05
2022-08-26T11:31:51.576Z,39.98
2022-08-26T11:35:00.458Z,40.55
2022-08-26T11:37:33.287Z,40.32
2022-08-26T11:40:02.990Z,39.65
2022-08-26T11:42:40.869Z,39.50
2022-08-26T11:45:36.130Z,40.63
2022-08-26T11:48:22.372Z,40.35
2022-08-26T11:51:22.363Z,41.06
2022-08-26T11:53:49.354Z,40.86
2022-08-26T11:56:26.997Z,40.41
2022-08-26T11:59:02.024Z,40.24
2022-08-26T12:01:35.799Z,40.91
2022-08-26T12:04:05.803Z,40.25
2022-08-26T12:06:45.314Z,40.60
2022-08-26T12:09:35.592Z,41.43
2022-08-26T12:12:12.117Z,40.99
2022-08-26T12:14:39.621Z,41.64
2022-08-26T12:17:14.121Z,41.26
2022-08-26T12:19:40.868Z,41.38
2022-08-26T12:22:20.947Z,41.83
2022-08-26T12:24:52.239Z,41.61
2022-08-26T12:27:27.292Z,42.00
2022-08-26T12:30:13.993Z,42.29
2022-08-26T12:32:57.593Z,40.84
2022-08-26T12:35:26.798Z,41.77
2022-08-26T12:37:54.380Z,41.60
2022-08-26T12:40:31.354Z,41.41
2022-08-26T12:43:00.799Z,41.20
2022-08-26T12:45:33.696Z,41.03
2022-08-26T12:48:10.556Z,41.55
2022-08-26T12:50:49.043Z,42.38
2022-08-26T12:53:22.563Z,42.38
2022-08-26T12:55:53.955Z,42.61
2022-08-26T12:58:31.667Z,41.83
2022-08-26T13:01:04.758Z,41.72
2022-08-26T13:03:34.400Z,41.07
2022-08-26T13:06:16.475Z,40.58
2022-08-26T13:09:08.846Z,41.44
2022-08-26T13:11:35.645Z,41.28
2022-08-26T13:14:08.205Z,41.26
2022-08-26T13:16:36.911Z,41.72
2022-08-26T13:19:10.368Z,40.76
2022-08-26T13:21:49.377Z,40.98
2022-08-26T13:24:22.423Z,39.98
2022-08-26T13:26:50.067Z,40.07
2022-08-26T13:29:17.903Z,39.20
2022-08-26T13:31:45.915Z,39.71
2022-08-26T13:34:18.055Z,39.41
2022-08-26T13:36:45.794Z,39.52
2022-08-26T13:39:13.351Z,40.31
2022-08-26T13:41:40.165Z,39.96
2022-08-26T13:44:07.134Z,39.84
2022-08-26T13:46:34.204Z,39.90
2022-08-26T13:49:01.035Z,39.32
2022-08-26T13:51:28.444Z,37.63
2022-08-26T13:53:56.431Z,38.82
2022-08-26T13:56:23.940Z,39.67
2022-08-26T13:58:50.659Z,39.01
2022-08-26T14:01:17.891Z,37.69
2022-08-26T14:03:45.671Z,37.57
2022-08-26T14:06:15.032Z,36.60
2022-08-26T14:08:42.648Z,36.07
2022-08-26T14:11:09.812Z,35.99
2022-08-26T14:13:36.996Z,35.73
2022-08-26T14:16:07.868Z,35.17
2022-08-26T14:18:41.781Z,35.32
2022-08-26T14:21:12.891Z,35.49
2022-08-26T14:23:40.213Z,35.72
2022-08-26T14:26:11.678Z,35.10
2022-08-26T14:28:54.565Z,34.17
2022-08-26T14:31:23.389Z,33.72
2022-08-26T14:33:50.311Z,33.87
2022-08-26T14:36:28.980Z,33.73
2022-08-26T14:38:56.976Z,33.48
2022-08-26T14:41:27.167Z,33.29
2022-08-26T14:44:15.079Z,33.15
2022-08-26T14:46:48.566Z,32.76
2022-08-26T14:49:16.657Z,33.00
2022-08-26T14:51:43.485Z,32.80
2022-08-26T14:54:14.682Z,32.54
2022-08-26T14:56:49.401Z,32.06
2022-08-26T14:59:22.660Z,31.81
2022-08-26T15:01:49.718Z,31.67
2022-08-26T15:04:17.290Z,31.42
2022-08-26T15:06:44.166Z,31.43
2022-08-26T15:09:11.258Z,31.32
2022-08-26T15:11:40.443Z,31.41
2022-08-26T15:14:07.561Z,31.61
2022-08-26T15:16:41.715Z,31.49
2022-08-26T15:19:08.544Z,31.49
2022-08-26T15:21:36.537Z,31.26
2022-08-26T15:24:04.599Z,30.95
2022-08-26T15:26:32.747Z,31.02
2022-08-26T15:29:03.061Z,31.05
2022-08-26T15:31:33.834Z,31.13
2022-08-26T15:34:04.506Z,30.95
2022-08-26T15:36:33.217Z,30.87
2022-08-26T15:39:00.845Z,30.66
2022-08-26T15:41:29.329Z,30.70
2022-08-26T15:43:56.984Z,30.66
2022-08-26T15:46:24.186Z,30.63
2022-08-26T15:48:51.860Z,30.63
2022-08-26T15:51:33.873Z,30.40
2022-08-26T15:54:02.102Z,30.19
2022-08-26T15:56:32.484Z,30.15
2022-08-26T15:59:02.297Z,30.15
2022-08-26T16:01:31.723Z,30.28
2022-08-26T16:03:58.654Z,30.16
2022-08-26T16:06:28.753Z,30.21
2022-08-26T16:08:56.324Z,30.18
2022-08-26T16:11:23.647Z,30.22
2022-08-26T16:13:50.605Z,30.24
2022-08-26T16:16:17.779Z,30.15
2022-08-26T16:18:45.302Z,30.10
2022-08-26T16:21:21.549Z,29.81
2022-08-26T16:23:48.644Z,29.62
2022-08-26T16:26:19.158Z,29.60
2022-08-26T16:28:45.966Z,29.43
2022-08-26T16:31:13.716Z,29.27
2022-08-26T16:33:40.733Z,29.03
2022-08-26T16:36:08.783Z,28.81
2022-08-26T16:38:36.597Z,28.56
2022-08-26T16:41:04.275Z,28.30
2022-08-26T16:43:31.018Z,28.19
2022-08-26T16:45:57.799Z,27.99
2022-08-26T16:48:24.630Z,27.88
2022-08-26T16:50:51.684Z,27.94
2022-08-26T16:53:18.980Z,27.65
2022-08-26T16:55:48.326Z,27.47
2022-08-26T16:58:15.423Z,27.22
2022-08-26T17:00:42.868Z,27.05
2022-08-26T17:03:10.014Z,26.93
2022-08-26T17:05:37.108Z,26.80
2022-08-26T17:08:04.223Z,26.63
2022-08-26T17:10:31.855Z,26.52
2022-08-26T17:12:58.866Z,26.40
2022-08-26T17:15:25.996Z,26.26
2022-08-26T17:17:53.791Z,26.14
2022-08-26T17:20:22.466Z,26.01
2022-08-26T17:22:51.021Z,25.83
2022-08-26T17:25:24.081Z,25.69
2022-08-26T17:27:51.629Z,25.44
2022-08-26T17:30:18.974Z,25.33
2022-08-26T17:32:46.486Z,25.30
2022-08-26T17:35:16.037Z,25.27
2022-08-26T17:37:43.368Z,25.06
2022-08-26T17:40:15.411Z,25.01
2022-08-26T17:42:42.218Z,24.87
2022-08-26T17:45:10.553Z,24.77
2022-08-26T17:47:38.263Z,24.70
2022-08-26T17:50:07.061Z,24.68
2022-08-26T17:52:33.712Z,24.61
2022-08-26T17:55:00.538Z,24.56
2022-08-26T17:57:27.298Z,24.47
2022-08-26T17:59:56.556Z,24.43
2022-08-26T18:02:23.937Z,24.33
2022-08-26T18:04:50.598Z,24.24
2022-08-26T18:07:17.735Z,24.22
2022-08-26T18:09:44.628Z,24.16
2022-08-26T18:12:12.034Z,24.11
2022-08-26T18:14:38.888Z,24.03
2022-08-26T18:17:05.935Z,23.93
2022-08-26T18:19:32.749Z,23.91
2022-08-26T18:21:59.546Z,23.82
2022-08-26T18:24:30.301Z,23.72
2022-08-26T18:26:57.260Z,23.67
2022-08-26T18:29:25.443Z,23.58
2022-08-26T18:31:52.497Z,23.49
2022-08-26T18:34:19.772Z,23.50
2022-08-26T18:36:47.575Z,23.41
2022-08-26T18:39:15.474Z,23.34
2022-08-26T18:41:45.585Z,23.32
2022-08-26T18:44:14.740Z,23.23
2022-08-26T18:46:41.809Z,23.25
2022-08-26T18:49:10.773Z,23.22
2022-08-26T18:51:37.985Z,23.15
2022-08-26T18:54:06.777Z,23.11
2022-08-26T18:56:35.465Z,23.11
2022-08-26T18:59:03.211Z,23.09
2022-08-26T19:01:31.156Z,23.08
2022-08-26T19:04:00.005Z,23.06
2022-08-26T19:06:29.409Z,22.99
2022-08-26T19:08:58.171Z,22.97
2022-08-26T19:11:32.324Z,22.92
2022-08-26T19:14:07.205Z,22.91
2022-08-26T19:16:34.177Z,22.86
2022-08-26T19:19:01.935Z,22.77
2022-08-26T19:21:29.687Z,22.65
2022-08-26T19:23:58.911Z,22.57
2022-08-26T19:26:27.042Z,22.47
2022-08-26T19:28:54.340Z,22.42
2022-08-26T19:31:21.553Z,22.28
2022-08-26T19:33:48.391Z,22.16
2022-08-26T19:36:18.599Z,22.16
2022-08-26T19:38:45.868Z,22.17
2022-08-26T19:41:36.998Z,22.14
2022-08-26T19:44:13.081Z,22.12
2022-08-26T19:46:40.598Z,22.06
2022-08-26T19:49:07.405Z,22.04
2022-08-26T19:51:35.430Z,21.98
2022-08-26T19:54:02.915Z,21.93
2022-08-26T19:56:29.872Z,21.92
2022-08-26T19:58:56.967Z,21.93
2022-08-26T20:01:24.404Z,21.89
2022-08-26T20:03:51.355Z,21.88
2022-08-26T20:06:18.630Z,21.86
2022-08-26T20:08:45.873Z,21.88
2022-08-26T20:11:15.806Z,21.86
2022-08-26T20:13:43.838Z,21.89
2022-08-26T20:16:12.070Z,21.87
2022-08-26T20:18:59.579Z,21.77
2022-08-26T20:21:27.581Z,21.68
2022-08-26T20:24:01.318Z,21.66
2022-08-26T20:26:31.656Z,21.70
2022-08-26T20:29:01.282Z,21.64
2022-08-26T20:31:28.663Z,21.60
2022-08-26T20:33:55.663Z,21.57
2022-08-26T20:36:26.753Z,21.56
2022-08-26T20:41:22.049Z,21.47
2022-08-26T20:43:48.811Z,21.48
2022-08-26T20:46:17.383Z,21.39
2022-08-26T20:48:44.603Z,21.32
2022-08-26T20:51:11.649Z,21.24
2022-08-26T20:53:38.470Z,21.16
2022-08-26T20:56:08.632Z,21.17
2022-08-26T20:58:36.507Z,21.22
2022-08-26T21:01:07.518Z,21.13
2022-08-26T21:03:35.972Z,21.06
2022-08-26T21:06:03.723Z,20.98
2022-08-26T21:08:33.156Z,20.91
2022-08-26T21:11:00.852Z,20.90
2022-08-26T21:13:35.773Z,20.86
2022-08-26T21:16:11.066Z,20.83
2022-08-26T21:18:38.869Z,20.80
2022-08-26T21:21:08.982Z,20.69
2022-08-26T21:23:36.670Z,20.67
2022-08-26T21:26:05.532Z,20.74
2022-08-26T21:28:32.466Z,20.73
2022-08-26T21:31:03.809Z,20.67
2022-08-26T21:33:30.574Z,20.59
2022-08-26T21:35:57.325Z,20.50
2022-08-26T21:38:24.002Z,20.51
2022-08-26T21:41:02.450Z,20.51
2022-08-26T21:43:35.557Z,20.52
2022-08-26T21:46:14.379Z,20.48
2022-08-26T21:48:50.724Z,20.41
2022-08-26T21:51:20.873Z,20.38
2022-08-26T21:53:48.220Z,20.33
2022-08-26T21:56:18.069Z,20.30
2022-08-26T21:58:44.838Z,20.28
2022-08-26T22:01:17.304Z,20.28
2022-08-26T22:03:47.568Z,20.23
2022-08-26T22:06:19.790Z,20.19
2022-08-26T22:08:46.650Z,20.12
2022-08-26T22:11:14.220Z,20.11
2022-08-26T22:13:42.537Z,20.12
2022-08-26T22:16:09.933Z,20.11
2022-08-26T22:18:37.839Z,20.07
2022-08-26T22:21:10.058Z,20.05
2022-08-26T22:23:38.076Z,19.97
2022-08-26T22:26:09.971Z,19.96
2022-08-26T22:28:36.939Z,19.97
2022-08-26T22:31:03.634Z,19.95
2022-08-26T22:33:30.460Z,19.90
2022-08-26T22:35:57.141Z,19.86
2022-08-26T22:38:23.943Z,19.86
2022-08-26T22:40:56.049Z,19.91
2022-08-26T22:43:24.794Z,19.90
2022-08-26T22:45:52.971Z,19.89
2022-08-26T22:48:25.128Z,19.86
2022-08-26T22:50:58.253Z,19.82
2022-08-26T22:53:26.967Z,19.84
2022-08-26T22:55:54.421Z,19.80
2022-08-26T22:58:21.723Z,19.75
2022-08-26T23:00:59.300Z,19.70
2022-08-26T23:03:26.767Z,19.64
2022-08-26T23:05:55.478Z,19.58
2022-08-26T23:08:23.600Z,19.53
2022-08-26T23:10:51.291Z,19.47
2022-08-26T23:13:18.735Z,19.47
2022-08-26T23:15:46.322Z,19.46
2022-08-26T23:18:14.552Z,19.51
2022-08-26T23:20:41.877Z,19.52
2022-08-26T23:23:08.727Z,19.54
2022-08-26T23:25:35.546Z,19.44
2022-08-26T23:28:02.759Z,19.38
2022-08-26T23:30:32.483Z,19.33
2022-08-26T23:32:59.517Z,19.31
2022-08-26T23:35:27.229Z,19.35
2022-08-26T23:37:53.943Z,19.28
2022-08-26T23:40:25.645Z,19.28
2022-08-26T23:42:54.281Z,19.30
2022-08-26T23:45:22.511Z,19.34
2022-08-26T23:47:53.291Z,19.28
2022-08-26T23:50:48.640Z,19.24
2022-08-26T23:53:22.232Z,19.22
2022-08-26T23:55:51.723Z,19.12
2022-08-26T23:58:20.377Z,19.10
